BFIBOEING FLD/KING COUNTY INTL
METARs for airports near BFI, sorted by distance:
N 0 nm 21' KBFI 280653Z 28003KT 10SM CLR 21/11 A3009
SE 4 nm 32' KRNT 280653Z 33007KT 10SM CLR 22/11 A3009
S 4 nm 432' KSEA 280653Z 03010KT 10SM FEW250 22/09 A3010
W 18 nm 444' KPWT 280656Z 00000KT 10SM CLR 16/12 A3011
SW 19 nm 294' KTIW 280653Z 27003KT 10SM CLR 17/14 A3011
N 22 nm 607' KPAE 280653Z 01006KT 10SM CLR 17/08 A3012
S 24 nm 322' KTCM 280358Z 30003KT 10SM CLR 24/15 A3006
S 25 nm 537' KPLU 280735Z 00000KT 10SM CLR 17/16 A3012
S 29 nm 301' KGRF 280358Z 27006KT 10SM CLR 24/14 A3005
N 38 nm 141' KAWO 280656Z 34005KT 10SM CLR 15/08 A3012
SW 38 nm 272' KSHN 280653Z 26005KT 10SM CLR 14/12 A3009
SW 41 nm 207' KOLM 280654Z 00000KT 10SM CLR 16/11 A3010
N 51 nm 47' KNUW 280656Z 14005KT 10SM FEW100 SCT250 12/08 A3014
N 56 nm 145' KBVS 280735Z 00000KT 9SM CLR 11/09 A3011
NW 57 nm 13' KNOW 280735Z 30012KT 10SM CLR 13/11 A3010
SW 58 nm 177' KCLS 280735Z 23004KT 10SM CLR 15/13 A3012
NW 59 nm 291' KCLM 280653Z 30006KT 10SM CLR 14/09 A3011
NW 66 nm 112' KFHR 280653Z 00000KT 10SM CLR 11/09 A3008
SW 74 nm 17' KHQM 280653Z 27004KT 10SM CLR 14/12 A3013
N 74 nm 34' KORS 280735Z 16005KT 10SM CLR 16/11 A3007
N 76 nm 171' KBLI 280653Z 19006KT 10SM CLR 17/14 A3008
E 78 nm 1763' KELN 280653Z 31012KT 10SM CLR 22/12 A3005
NW 80 nm 64' CYYJ 280700Z VRB02KT 20SM SKC 14/10 A3006
E 85 nm 1248' KEAT 280655Z 31010KT 10SM CLR 25/11 A3000
S 88 nm 20' KKLS 280656Z 31003KT 10SM CLR 17/14 A3011
SE 92 nm 1098' KYKM 280653Z 29006KT 10SM CLR 24/12 A3002
W 94 nm 193' KUIL 280653Z 00000KT 10SM CLR 11/10 A3014
TAFs for airports near BFI, sorted by distance:
N 0 nm 21' KBFI KBFI 280539Z 2806/2906 VRB03KT P6SM SCT250
  FM281900 31006KT P6SM SCT250
S 4 nm 432' KSEA KSEA 280539Z 2806/2912 03006KT P6SM SCT250
  FM281700 30006KT P6SM SCT250
  FM290400 01006KT P6SM SCT250
W 18 nm 444' KPWT TAF KPWT 280539Z 2806/2906 VRB03KT P6SM SCT250
  FM281900 04008KT P6SM SCT250
N 22 nm 607' KPAE KPAE 280539Z 2806/2906 36006KT P6SM SCT250
  FM281800 32006KT P6SM SCT250
S 24 nm 322' KTCM TAF KTCM 271300Z 2721/2903 04006KT 9999 SCT250 QNH3005INS
  BECMG 2812/2813 VRB06KT 9999 SCT015 SCT250 QNH3006INS
  BECMG 2818/2819 33009KT 9999 SKC QNH3006INS TX29/2723Z TN12/2813Z
S 29 nm 301' KGRF TAF TAF KGRF 272051Z 2721/2903 30005KT 9999 SCT150 QNH3002INS
  BECMG 2813/2814 27006KT 9999 BKN010 BKN240 QNH3015INS
  BECMG 2816/2817 35007KT 9999 BKN240 QNH3006INS TX28/2800Z TN14/2813Z
SW 41 nm 207' KOLM KOLM 280539Z 2806/2906 00000KT P6SM SCT250
  FM281300 VRB03KT 5SM BR SCT002 SCT250
  FM281500 VRB03KT P6SM SCT250
  FM282000 01006KT P6SM SCT250
N 51 nm 47' KNUW TAF KNUW 2807/2907 VRB06KT 9999 FEW030 FEW250 QNH3009INS
  FM281200 26009KT 9999 FEW030 FEW200 QNH3011INS
  TEMPO 2812/2817 24005KT 4800 BR BKN008 T11/2812Z T21/2823Z FS30165
NW 59 nm 291' KCLM KCLM 280539Z 2806/2906 29008KT P6SM SCT250
SW 74 nm 17' KHQM KHQM 280539Z 2806/2906 VRB03KT P6SM SCT250
  FM280900 VRB03KT 5SM BR OVC004
  FM281200 VRB03KT 1SM BR OVC002
  FM281400 22006KT P6SM OVC005
  FM281600 26014KT P6SM SCT250
N 76 nm 171' KBLI KBLI 280539Z 2806/2906 19008KT P6SM SCT250
E 85 nm 1248' KEAT TAF KEAT 280520Z 2806/2906 32005KT P6SM SCT250
  FM281600 29006KT P6SM SCT250
  FM282000 VRB04KT P6SM SKC
  FM290200 35006KT P6SM SKC
SE 92 nm 1098' KYKM KYKM 280531Z 2806/2906 28008KT P6SM BKN250
  FM282000 25008KT P6SM FEW100 BKN250
  FM290400 28008KT P6SM SCT250

Shortcut to this page: http://wxbay.com.

Data may contain errors.